sensor_id;sensor_type;location;lat;lon;timestamp;pressure;altitude;pressure_sealevel;temperature;humidity
50394;BME280;36308;46.312;25.288;2023-02-13T00:00:59;97921.13;;;-2.15;63.05
50394;BME280;36308;46.312;25.288;2023-02-13T00:03:25;97917.50;;;-2.14;63.01
50394;BME280;36308;46.312;25.288;2023-02-13T00:05:50;97912.78;;;-2.20;63.43
50394;BME280;36308;46.312;25.288;2023-02-13T00:08:16;97922.53;;;-2.11;63.43
50394;BME280;36308;46.312;25.288;2023-02-13T00:10:41;97915.56;;;-2.12;63.12
50394;BME280;36308;46.312;25.288;2023-02-13T00:13:07;97916.16;;;-2.08;63.28
50394;BME280;36308;46.312;25.288;2023-02-13T00:15:32;97908.13;;;-2.07;63.21
50394;BME280;36308;46.312;25.288;2023-02-13T00:17:58;97913.38;;;-2.07;63.34
50394;BME280;36308;46.312;25.288;2023-02-13T00:20:24;97916.84;;;-2.06;63.59
50394;BME280;36308;46.312;25.288;2023-02-13T00:22:49;97908.94;;;-2.06;63.35
50394;BME280;36308;46.312;25.288;2023-02-13T00:25:15;97903.09;;;-2.10;63.57
50394;BME280;36308;46.312;25.288;2023-02-13T00:27:40;97904.97;;;-2.00;63.61
50394;BME280;36308;46.312;25.288;2023-02-13T00:30:06;97903.03;;;-1.98;63.60
50394;BME280;36308;46.312;25.288;2023-02-13T00:32:33;97903.44;;;-2.03;63.66
50394;BME280;36308;46.312;25.288;2023-02-13T00:34:58;97908.72;;;-1.93;63.67
50394;BME280;36308;46.312;25.288;2023-02-13T00:37:24;97901.78;;;-1.94;63.50
50394;BME280;36308;46.312;25.288;2023-02-13T00:39:50;97903.19;;;-1.90;63.42
50394;BME280;36308;46.312;25.288;2023-02-13T00:42:15;97902.22;;;-1.89;63.95
50394;BME280;36308;46.312;25.288;2023-02-13T00:44:41;97901.97;;;-1.86;63.82
50394;BME280;36308;46.312;25.288;2023-02-13T00:47:06;97896.94;;;-1.89;63.46
50394;BME280;36308;46.312;25.288;2023-02-13T00:49:32;97902.91;;;-1.87;63.81
50394;BME280;36308;46.312;25.288;2023-02-13T00:51:58;97891.41;;;-1.86;63.62
50394;BME280;36308;46.312;25.288;2023-02-13T00:54:23;97881.56;;;-1.84;63.94
50394;BME280;36308;46.312;25.288;2023-02-13T00:56:49;97879.63;;;-1.82;63.56
50394;BME280;36308;46.312;25.288;2023-02-13T00:59:14;97886.56;;;-1.81;63.53
50394;BME280;36308;46.312;25.288;2023-02-13T01:01:41;97890.75;;;-1.78;64.03
50394;BME280;36308;46.312;25.288;2023-02-13T01:04:07;97884.34;;;-1.86;63.47
50394;BME280;36308;46.312;25.288;2023-02-13T01:06:33;97872.34;;;-1.99;63.40
50394;BME280;36308;46.312;25.288;2023-02-13T01:08:58;97877.06;;;-2.03;63.02
50394;BME280;36308;46.312;25.288;2023-02-13T01:11:24;97880.34;;;-2.11;63.02
50394;BME280;36308;46.312;25.288;2023-02-13T01:13:49;97884.22;;;-2.15;62.94
50394;BME280;36308;46.312;25.288;2023-02-13T01:16:15;97874.34;;;-2.22;62.85
50394;BME280;36308;46.312;25.288;2023-02-13T01:18:42;97867.94;;;-2.30;63.20
50394;BME280;36308;46.312;25.288;2023-02-13T01:21:15;97869.28;;;-2.35;63.21
50394;BME280;36308;46.312;25.288;2023-02-13T01:23:41;97875.78;;;-2.39;63.24
50394;BME280;36308;46.312;25.288;2023-02-13T01:26:10;97876.88;;;-2.42;63.53
50394;BME280;36308;46.312;25.288;2023-02-13T01:28:37;97863.66;;;-2.52;63.62
50394;BME280;36308;46.312;25.288;2023-02-13T01:31:03;97869.91;;;-2.53;63.53
50394;BME280;36308;46.312;25.288;2023-02-13T01:33:29;97866.81;;;-2.58;63.64
50394;BME280;36308;46.312;25.288;2023-02-13T01:35:54;97858.91;;;-2.58;63.76
50394;BME280;36308;46.312;25.288;2023-02-13T01:38:20;97867.09;;;-2.61;63.79
50394;BME280;36308;46.312;25.288;2023-02-13T01:40:47;97859.00;;;-2.69;63.61
50394;BME280;36308;46.312;25.288;2023-02-13T01:43:13;97870.94;;;-2.65;63.85
50394;BME280;36308;46.312;25.288;2023-02-13T01:45:40;97871.88;;;-2.66;63.88
50394;BME280;36308;46.312;25.288;2023-02-13T01:48:16;97874.66;;;-2.68;63.95
50394;BME280;36308;46.312;25.288;2023-02-13T01:50:49;97865.09;;;-2.69;64.08
50394;BME280;36308;46.312;25.288;2023-02-13T01:53:32;97866.91;;;-2.69;64.21
50394;BME280;36308;46.312;25.288;2023-02-13T01:56:12;97864.25;;;-2.69;64.40
50394;BME280;36308;46.312;25.288;2023-02-13T01:58:41;97852.56;;;-2.76;64.20
50394;BME280;36308;46.312;25.288;2023-02-13T02:01:09;97865.78;;;-2.67;64.35
50394;BME280;36308;46.312;25.288;2023-02-13T02:03:43;97858.00;;;-2.68;64.51
50394;BME280;36308;46.312;25.288;2023-02-13T02:06:16;97863.47;;;-2.60;64.39
50394;BME280;36308;46.312;25.288;2023-02-13T02:08:43;97846.78;;;-2.70;64.32
50394;BME280;36308;46.312;25.288;2023-02-13T02:11:22;97863.47;;;-2.60;64.37
50394;BME280;36308;46.312;25.288;2023-02-13T02:13:50;97852.94;;;-2.60;64.58
50394;BME280;36308;46.312;25.288;2023-02-13T02:16:16;97858.66;;;-2.55;64.71
50394;BME280;36308;46.312;25.288;2023-02-13T02:18:41;97852.53;;;-2.55;64.65
50394;BME280;36308;46.312;25.288;2023-02-13T02:27:15;97847.25;;;-2.65;64.60
50394;BME280;36308;46.312;25.288;2023-02-13T02:32:41;97854.34;;;-2.56;64.86
50394;BME280;36308;46.312;25.288;2023-02-13T02:35:27;97868.22;;;-2.54;64.81
50394;BME280;36308;46.312;25.288;2023-02-13T02:40:58;97859.38;;;-2.53;65.05
50394;BME280;36308;46.312;25.288;2023-02-13T02:46:12;97867.97;;;-2.51;65.31
50394;BME280;36308;46.312;25.288;2023-02-13T02:48:48;97866.03;;;-2.49;65.25
50394;BME280;36308;46.312;25.288;2023-02-13T02:52:13;97878.94;;;-2.46;65.19
50394;BME280;36308;46.312;25.288;2023-02-13T02:57:29;97876.69;;;-2.50;65.19
50394;BME280;36308;46.312;25.288;2023-02-13T03:00:17;97884.66;;;-2.40;65.11
50394;BME280;36308;46.312;25.288;2023-02-13T03:03:04;97881.06;;;-2.39;65.35
50394;BME280;36308;46.312;25.288;2023-02-13T03:05:51;97884.38;;;-2.37;65.20
50394;BME280;36308;46.312;25.288;2023-02-13T03:08:37;97888.56;;;-2.35;65.42
50394;BME280;36308;46.312;25.288;2023-02-13T03:11:22;97888.31;;;-2.32;65.27
50394;BME280;36308;46.312;25.288;2023-02-13T03:14:08;97897.63;;;-2.28;65.33
50394;BME280;36308;46.312;25.288;2023-02-13T03:16:35;97892.22;;;-2.26;65.18
50394;BME280;36308;46.312;25.288;2023-02-13T03:25:19;97902.25;;;-2.20;65.39
50394;BME280;36308;46.312;25.288;2023-02-13T03:28:09;97885.97;;;-2.25;65.54
50394;BME280;36308;46.312;25.288;2023-02-13T03:33:38;97896.69;;;-2.17;65.42
50394;BME280;36308;46.312;25.288;2023-02-13T03:36:32;97901.69;;;-2.14;65.81
50394;BME280;36308;46.312;25.288;2023-02-13T03:42:20;97899.50;;;-2.09;65.81
50394;BME280;36308;46.312;25.288;2023-02-13T03:45:01;97879.19;;;-2.18;65.30
50394;BME280;36308;46.312;25.288;2023-02-13T03:47:49;97886.59;;;-2.12;65.63
50394;BME280;36308;46.312;25.288;2023-02-13T03:50:17;97891.19;;;-2.04;65.64
50394;BME280;36308;46.312;25.288;2023-02-13T03:55:21;97891.06;;;-2.03;65.77
50394;BME280;36308;46.312;25.288;2023-02-13T03:58:10;97898.69;;;-1.99;65.82
50394;BME280;36308;46.312;25.288;2023-02-13T04:00:59;97894.28;;;-1.99;65.71
50394;BME280;36308;46.312;25.288;2023-02-13T04:03:35;97889.78;;;-2.08;65.60
50394;BME280;36308;46.312;25.288;2023-02-13T04:07:13;97909.00;;;-1.96;65.92
50394;BME280;36308;46.312;25.288;2023-02-13T04:09:34;97886.75;;;-2.04;65.62
50394;BME280;36308;46.312;25.288;2023-02-13T04:12:12;97907.31;;;-1.97;65.89
50394;BME280;36308;46.312;25.288;2023-02-13T04:17:23;97910.41;;;-1.92;66.13
50394;BME280;36308;46.312;25.288;2023-02-13T04:19:51;97908.47;;;-1.90;66.02
50394;BME280;36308;46.312;25.288;2023-02-13T04:22:18;97909.56;;;-1.93;65.89
50394;BME280;36308;46.312;25.288;2023-02-13T04:24:44;97902.19;;;-1.99;66.03
50394;BME280;36308;46.312;25.288;2023-02-13T04:27:12;97912.06;;;-1.91;66.25
50394;BME280;36308;46.312;25.288;2023-02-13T04:29:39;97910.13;;;-1.89;66.10
50394;BME280;36308;46.312;25.288;2023-02-13T04:32:04;97910.81;;;-1.87;66.09
50394;BME280;36308;46.312;25.288;2023-02-13T04:34:30;97923.75;;;-1.84;66.11
50394;BME280;36308;46.312;25.288;2023-02-13T04:36:55;97907.47;;;-1.89;66.03
50394;BME280;36308;46.312;25.288;2023-02-13T04:39:21;97911.53;;;-1.85;66.50
50394;BME280;36308;46.312;25.288;2023-02-13T04:41:46;97925.16;;;-1.80;66.18
50394;BME280;36308;46.312;25.288;2023-02-13T04:47:15;97918.91;;;-1.79;66.31
50394;BME280;36308;46.312;25.288;2023-02-13T04:49:40;97916.25;;;-1.79;66.19
50394;BME280;36308;46.312;25.288;2023-02-13T04:55:08;97914.63;;;-1.80;66.20
50394;BME280;36308;46.312;25.288;2023-02-13T04:57:34;97924.75;;;-1.75;66.37
50394;BME280;36308;46.312;25.288;2023-02-13T05:00:05;97928.22;;;-1.75;66.51
50394;BME280;36308;46.312;25.288;2023-02-13T05:02:31;97932.53;;;-1.74;66.27
50394;BME280;36308;46.312;25.288;2023-02-13T05:04:56;97938.63;;;-1.73;66.39
50394;BME280;36308;46.312;25.288;2023-02-13T05:07:22;97931.56;;;-1.73;66.04
50394;BME280;36308;46.312;25.288;2023-02-13T05:09:47;97934.31;;;-1.74;66.28
50394;BME280;36308;46.312;25.288;2023-02-13T05:12:13;97913.34;;;-1.86;66.16
50394;BME280;36308;46.312;25.288;2023-02-13T05:14:38;97933.78;;;-1.78;66.04
50394;BME280;36308;46.312;25.288;2023-02-13T05:17:04;97932.06;;;-1.89;66.02
50394;BME280;36308;46.312;25.288;2023-02-13T05:19:29;97938.88;;;-1.86;66.07
50394;BME280;36308;46.312;25.288;2023-02-13T05:21:55;97933.69;;;-1.97;66.13
50394;BME280;36308;46.312;25.288;2023-02-13T05:24:39;97939.53;;;-1.94;66.30
50394;BME280;36308;46.312;25.288;2023-02-13T05:27:04;97937.53;;;-2.01;66.01
50394;BME280;36308;46.312;25.288;2023-02-13T05:29:30;97930.63;;;-2.03;66.46
50394;BME280;36308;46.312;25.288;2023-02-13T05:31:56;97943.00;;;-1.93;66.41
50394;BME280;36308;46.312;25.288;2023-02-13T05:34:24;97935.34;;;-1.96;66.30
50394;BME280;36308;46.312;25.288;2023-02-13T05:36:50;97937.28;;;-1.98;66.79
50394;BME280;36308;46.312;25.288;2023-02-13T05:39:16;97936.19;;;-1.96;66.38
50394;BME280;36308;46.312;25.288;2023-02-13T05:41:45;97947.03;;;-1.89;66.98
50394;BME280;36308;46.312;25.288;2023-02-13T05:44:11;97938.16;;;-1.88;66.82
50394;BME280;36308;46.312;25.288;2023-02-13T05:46:38;97929.81;;;-1.93;66.56
50394;BME280;36308;46.312;25.288;2023-02-13T05:49:05;97952.06;;;-1.86;66.69
50394;BME280;36308;46.312;25.288;2023-02-13T05:51:31;97949.41;;;-1.86;67.14
50394;BME280;36308;46.312;25.288;2023-02-13T05:53:56;97945.38;;;-1.90;66.43
50394;BME280;36308;46.312;25.288;2023-02-13T05:56:22;97958.97;;;-1.85;66.98
50394;BME280;36308;46.312;25.288;2023-02-13T05:58:51;97968.47;;;-1.83;66.76
50394;BME280;36308;46.312;25.288;2023-02-13T06:01:17;97963.88;;;-1.80;66.93
50394;BME280;36308;46.312;25.288;2023-02-13T06:03:43;97957.91;;;-1.83;66.98
50394;BME280;36308;46.312;25.288;2023-02-13T06:06:08;97964.84;;;-1.81;66.81
50394;BME280;36308;46.312;25.288;2023-02-13T06:08:34;97964.59;;;-1.78;66.83
50394;BME280;36308;46.312;25.288;2023-02-13T06:10:59;97959.31;;;-1.78;67.08
50394;BME280;36308;46.312;25.288;2023-02-13T06:13:25;97966.38;;;-1.79;67.08
50394;BME280;36308;46.312;25.288;2023-02-13T06:15:51;97958.22;;;-1.76;66.92
50394;BME280;36308;46.312;25.288;2023-02-13T06:18:16;97967.06;;;-1.77;66.96
50394;BME280;36308;46.312;25.288;2023-02-13T06:20:42;97969.59;;;-1.75;66.72
50394;BME280;36308;46.312;25.288;2023-02-13T06:23:07;97960.97;;;-1.77;66.96
50394;BME280;36308;46.312;25.288;2023-02-13T06:25:34;97966.53;;;-1.71;67.15
50394;BME280;36308;46.312;25.288;2023-02-13T06:28:00;97966.28;;;-1.68;67.32
50394;BME280;36308;46.312;25.288;2023-02-13T06:30:26;97968.66;;;-1.65;67.08
50394;BME280;36308;46.312;25.288;2023-02-13T06:32:51;97972.97;;;-1.64;66.96
50394;BME280;36308;46.312;25.288;2023-02-13T06:35:17;97968.41;;;-1.61;66.94
50394;BME280;36308;46.312;25.288;2023-02-13T06:37:42;97964.66;;;-1.59;67.04
50394;BME280;36308;46.312;25.288;2023-02-13T06:40:09;97961.88;;;-1.57;67.06
50394;BME280;36308;46.312;25.288;2023-02-13T06:42:34;97961.88;;;-1.57;67.22
50394;BME280;36308;46.312;25.288;2023-02-13T06:45:00;97959.09;;;-1.56;67.25
50394;BME280;36308;46.312;25.288;2023-02-13T06:47:25;97967.59;;;-1.52;66.81
50394;BME280;36308;46.312;25.288;2023-02-13T06:49:51;97964.94;;;-1.52;66.83
50394;BME280;36308;46.312;25.288;2023-02-13T06:52:17;97966.34;;;-1.48;66.93
50394;BME280;36308;46.312;25.288;2023-02-13T06:54:42;97974.72;;;-1.43;67.12
50394;BME280;36308;46.312;25.288;2023-02-13T06:57:08;97968.31;;;-1.40;67.31
50394;BME280;36308;46.312;25.288;2023-02-13T06:59:33;97952.19;;;-1.47;67.05
50394;BME280;36308;46.312;25.288;2023-02-13T07:01:59;97956.09;;;-1.42;66.71
50394;BME280;36308;46.312;25.288;2023-02-13T07:04:24;97966.25;;;-1.37;66.59
50394;BME280;36308;46.312;25.288;2023-02-13T07:06:50;97963.88;;;-1.40;66.79
50394;BME280;36308;46.312;25.288;2023-02-13T07:09:15;97964.31;;;-1.35;67.13
50394;BME280;36308;46.312;25.288;2023-02-13T07:11:41;97964.16;;;-1.33;67.03
50394;BME280;36308;46.312;25.288;2023-02-13T07:14:07;97963.91;;;-1.30;66.93
50394;BME280;36308;46.312;25.288;2023-02-13T07:16:33;97962.78;;;-1.28;67.27
50394;BME280;36308;46.312;25.288;2023-02-13T07:18:58;97960.03;;;-1.26;67.21
50394;BME280;36308;46.312;25.288;2023-02-13T07:21:24;97948.63;;;-1.27;66.78
50394;BME280;36308;46.312;25.288;2023-02-13T07:23:50;97960.03;;;-1.16;67.29
50394;BME280;36308;46.312;25.288;2023-02-13T07:26:16;97959.47;;;-1.10;67.27
50394;BME280;36308;46.312;25.288;2023-02-13T07:28:41;97953.94;;;-1.07;66.81
50394;BME280;36308;46.312;25.288;2023-02-13T07:31:07;97959.63;;;-1.02;67.38
50394;BME280;36308;46.312;25.288;2023-02-13T07:33:35;97941.84;;;-1.00;66.88
50394;BME280;36308;46.312;25.288;2023-02-13T07:36:01;97954.25;;;-0.91;66.83
50394;BME280;36308;46.312;25.288;2023-02-13T07:38:28;97954.78;;;-0.87;66.82
50394;BME280;36308;46.312;25.288;2023-02-13T07:40:58;97950.06;;;-0.84;66.71
50394;BME280;36308;46.312;25.288;2023-02-13T07:43:23;97944.66;;;-0.82;66.62
50394;BME280;36308;46.312;25.288;2023-02-13T07:49:10;97947.28;;;-0.72;66.15
50394;BME280;36308;46.312;25.288;2023-02-13T08:31:32;97934.78;;;-0.70;69.52
50394;BME280;36308;46.312;25.288;2023-02-13T08:33:58;97927.66;;;-0.50;68.24
50394;BME280;36308;46.312;25.288;2023-02-13T08:36:23;97936.53;;;-0.42;68.16
50394;BME280;36308;46.312;25.288;2023-02-13T08:38:49;97928.22;;;-0.37;67.83
50394;BME280;36308;46.312;25.288;2023-02-13T08:41:15;97937.09;;;-0.28;67.19
50394;BME280;36308;46.312;25.288;2023-02-13T08:43:47;97932.50;;;-0.26;66.96
50394;BME280;36308;46.312;25.288;2023-02-13T08:46:14;97933.88;;;-0.22;66.84
50394;BME280;36308;46.312;25.288;2023-02-13T08:48:40;97944.16;;;-0.19;66.16
50394;BME280;36308;46.312;25.288;2023-02-13T08:51:11;97931.63;;;-0.17;66.66
50394;BME280;36308;46.312;25.288;2023-02-13T08:53:37;97937.47;;;-0.13;66.59
50394;BME280;36308;46.312;25.288;2023-02-13T08:56:03;97931.06;;;-0.11;66.06
50394;BME280;36308;46.312;25.288;2023-02-13T08:58:29;97926.44;;;-0.09;66.14
50394;BME280;36308;46.312;25.288;2023-02-13T09:00:55;97923.53;;;-0.06;66.56
50394;BME280;36308;46.312;25.288;2023-02-13T09:03:20;97906.88;;;-0.16;65.89
50394;BME280;36308;46.312;25.288;2023-02-13T09:05:46;97924.47;;;0.03;65.61
50394;BME280;36308;46.312;25.288;2023-02-13T09:08:12;97927.94;;;0.04;66.08
50394;BME280;36308;46.312;25.288;2023-02-13T09:10:39;97934.63;;;0.08;66.18
50394;BME280;36308;46.312;25.288;2023-02-13T09:13:04;97927.38;;;0.10;65.88
50394;BME280;36308;46.312;25.288;2023-02-13T09:15:30;97931.25;;;0.15;65.76
50394;BME280;36308;46.312;25.288;2023-02-13T09:17:56;97929.84;;;0.21;65.88
50394;BME280;36308;46.312;25.288;2023-02-13T09:20:22;97925.25;;;0.23;65.71
50394;BME280;36308;46.312;25.288;2023-02-13T09:22:48;97932.88;;;0.26;65.83
50394;BME280;36308;46.312;25.288;2023-02-13T09:25:13;97925.63;;;0.28;65.34
50394;BME280;36308;46.312;25.288;2023-02-13T09:27:39;97928.81;;;0.32;65.31
50394;BME280;36308;46.312;25.288;2023-02-13T09:30:06;97930.56;;;0.41;65.56
50394;BME280;36308;46.312;25.288;2023-02-13T09:32:32;97936.41;;;0.45;65.51
50394;BME280;36308;46.312;25.288;2023-02-13T09:34:58;97927.25;;;0.39;65.30
50394;BME280;36308;46.312;25.288;2023-02-13T09:37:25;97930.81;;;0.48;64.68
50394;BME280;36308;46.312;25.288;2023-02-13T09:39:51;97927.06;;;0.50;64.80
50394;BME280;36308;46.312;25.288;2023-02-13T09:42:20;97927.31;;;0.57;65.41
50394;BME280;36308;46.312;25.288;2023-02-13T09:44:51;97932.97;;;0.62;64.97
50394;BME280;36308;46.312;25.288;2023-02-13T09:49:56;97913.94;;;0.76;64.88
50394;BME280;36308;46.312;25.288;2023-02-13T09:52:26;97911.97;;;0.78;64.44
50394;BME280;36308;46.312;25.288;2023-02-13T09:54:52;97926.91;;;0.79;63.63
50394;BME280;36308;46.312;25.288;2023-02-13T10:00:27;97905.31;;;0.74;64.49
50394;BME280;36308;46.312;25.288;2023-02-13T10:15:50;97900.78;;;0.85;63.95
50394;BME280;36308;46.312;25.288;2023-02-13T10:18:22;97896.84;;;0.89;64.55
50394;BME280;36308;46.312;25.288;2023-02-13T10:20:58;97884.97;;;0.93;64.54
50394;BME280;36308;46.312;25.288;2023-02-13T10:23:36;97890.34;;;1.01;63.93
50394;BME280;36308;46.312;25.288;2023-02-13T10:26:06;97888.09;;;1.06;64.15
50394;BME280;36308;46.312;25.288;2023-02-13T10:29:06;97880.50;;;1.11;64.27
50394;BME280;36308;46.312;25.288;2023-02-13T10:31:53;97876.28;;;1.18;63.69
50394;BME280;36308;46.312;25.288;2023-02-13T10:34:23;97880.97;;;1.25;63.64
50394;BME280;36308;46.312;25.288;2023-02-13T10:36:49;97882.31;;;1.29;63.48
50394;BME280;36308;46.312;25.288;2023-02-13T10:39:27;97861.56;;;1.24;63.27
50394;BME280;36308;46.312;25.288;2023-02-13T10:50:26;97874.84;;;1.50;63.28
50394;BME280;36308;46.312;25.288;2023-02-13T11:01:04;97867.84;;;1.67;62.29
50394;BME280;36308;46.312;25.288;2023-02-13T11:03:32;97871.66;;;1.65;62.71
50394;BME280;36308;46.312;25.288;2023-02-13T11:05:58;97871.84;;;1.71;63.09
50394;BME280;36308;46.312;25.288;2023-02-13T11:08:35;97871.53;;;1.74;62.70
50394;BME280;36308;46.312;25.288;2023-02-13T11:11:03;97876.53;;;1.77;62.27
50394;BME280;36308;46.312;25.288;2023-02-13T11:13:29;97864.09;;;1.78;61.94
50394;BME280;36308;46.312;25.288;2023-02-13T11:18:35;97863.31;;;1.86;62.14
50394;BME280;36308;46.312;25.288;2023-02-13T11:23:36;97867.66;;;1.95;62.48
50394;BME280;36308;46.312;25.288;2023-02-13T11:26:06;97869.53;;;2.02;62.68
50394;BME280;36308;46.312;25.288;2023-02-13T11:28:37;97867.25;;;2.08;61.77
50394;BME280;36308;46.312;25.288;2023-02-13T11:31:25;97869.72;;;2.09;61.74
50394;BME280;36308;46.312;25.288;2023-02-13T11:33:51;97864.94;;;2.13;61.27
50394;BME280;36308;46.312;25.288;2023-02-13T11:36:27;97873.25;;;2.18;61.88
50394;BME280;36308;46.312;25.288;2023-02-13T11:39:25;97867.63;;;2.21;61.58
50394;BME280;36308;46.312;25.288;2023-02-13T11:41:49;97859.19;;;2.26;61.51
50394;BME280;36308;46.312;25.288;2023-02-13T11:44:27;97859.69;;;2.29;61.44
50394;BME280;36308;46.312;25.288;2023-02-13T11:46:59;97850.56;;;2.32;61.58
50394;BME280;36308;46.312;25.288;2023-02-13T11:49:36;97850.09;;;2.36;61.24
50394;BME280;36308;46.312;25.288;2023-02-13T11:52:05;97839.84;;;2.41;61.26
50394;BME280;36308;46.312;25.288;2023-02-13T11:54:40;97834.53;;;2.41;61.61
50394;BME280;36308;46.312;25.288;2023-02-13T11:57:31;97842.53;;;2.58;61.68
50394;BME280;36308;46.312;25.288;2023-02-13T11:59:58;97840.56;;;2.68;61.26
50394;BME280;36308;46.312;25.288;2023-02-13T12:02:43;97842.22;;;2.77;61.45
50394;BME280;36308;46.312;25.288;2023-02-13T12:05:17;97842.41;;;2.84;60.45
50394;BME280;36308;46.312;25.288;2023-02-13T12:07:44;97837.28;;;2.91;60.66
50394;BME280;36308;46.312;25.288;2023-02-13T12:10:23;97831.63;;;3.02;60.17
50394;BME280;36308;46.312;25.288;2023-02-13T12:12:56;97836.44;;;3.15;60.13
50394;BME280;36308;46.312;25.288;2023-02-13T12:15:27;97826.63;;;3.23;59.32
50394;BME280;36308;46.312;25.288;2023-02-13T12:18:15;97828.63;;;3.30;58.57
50394;BME280;36308;46.312;25.288;2023-02-13T12:26:33;97815.97;;;3.48;57.56
50394;BME280;36308;46.312;25.288;2023-02-13T12:32:26;97810.66;;;3.48;57.44
50394;BME280;36308;46.312;25.288;2023-02-13T12:45:53;97795.88;;;3.37;57.44
50394;BME280;36308;46.312;25.288;2023-02-13T12:48:28;97797.38;;;3.48;56.69
50394;BME280;36308;46.312;25.288;2023-02-13T12:51:11;97790.84;;;3.59;57.08
50394;BME280;36308;46.312;25.288;2023-02-13T12:59:34;97795.25;;;3.91;56.10
50394;BME280;36308;46.312;25.288;2023-02-13T13:13:41;97793.63;;;3.82;55.57
50394;BME280;36308;46.312;25.288;2023-02-13T13:19:06;97793.09;;;3.95;56.05
50394;BME280;36308;46.312;25.288;2023-02-13T13:21:40;97794.19;;;4.09;55.88
50394;BME280;36308;46.312;25.288;2023-02-13T13:26:50;97778.13;;;4.25;55.19
50394;BME280;36308;46.312;25.288;2023-02-13T13:29:22;97784.75;;;4.29;54.71
50394;BME280;36308;46.312;25.288;2023-02-13T13:31:56;97777.44;;;4.31;54.77
50394;BME280;36308;46.312;25.288;2023-02-13T13:34:25;97783.72;;;4.38;55.29
50394;BME280;36308;46.312;25.288;2023-02-13T13:42:28;97781.25;;;4.60;54.83
50394;BME280;36308;46.312;25.288;2023-02-13T13:45:13;97765.59;;;4.65;54.33
50394;BME280;36308;46.312;25.288;2023-02-13T13:47:56;97777.00;;;4.74;54.70
50394;BME280;36308;46.312;25.288;2023-02-13T13:50:30;97752.53;;;4.70;53.81
50394;BME280;36308;46.312;25.288;2023-02-13T13:53:12;97768.09;;;4.81;53.70
50394;BME280;36308;46.312;25.288;2023-02-13T14:01:23;97761.66;;;4.76;53.64
50394;BME280;36308;46.312;25.288;2023-02-13T14:03:59;97761.13;;;4.80;53.13
50394;BME280;36308;46.312;25.288;2023-02-13T14:11:50;97755.81;;;4.80;52.92
50394;BME280;36308;46.312;25.288;2023-02-13T14:17:00;97749.53;;;4.73;53.27
50394;BME280;36308;46.312;25.288;2023-02-13T14:19:39;97732.81;;;4.56;52.76
50394;BME280;36308;46.312;25.288;2023-02-13T14:24:57;97757.22;;;4.68;53.58
50394;BME280;36308;46.312;25.288;2023-02-13T14:27:28;97748.25;;;4.69;53.39
50394;BME280;36308;46.312;25.288;2023-02-13T14:29:54;97751.91;;;4.68;53.38
50394;BME280;36308;46.312;25.288;2023-02-13T14:32:34;97747.59;;;4.67;53.53
50394;BME280;36308;46.312;25.288;2023-02-13T14:35:05;97746.94;;;4.65;53.34
50394;BME280;36308;46.312;25.288;2023-02-13T14:37:49;97746.47;;;4.61;53.33
50394;BME280;36308;46.312;25.288;2023-02-13T14:42:52;97748.03;;;4.48;53.23
50394;BME280;36308;46.312;25.288;2023-02-13T14:45:24;97750.41;;;4.42;53.17
50394;BME280;36308;46.312;25.288;2023-02-13T14:47:54;97746.78;;;4.35;53.05
50394;BME280;36308;46.312;25.288;2023-02-13T14:50:53;97737.84;;;4.28;53.30
50394;BME280;36308;46.312;25.288;2023-02-13T14:53:29;97738.06;;;4.18;53.01
50394;BME280;36308;46.312;25.288;2023-02-13T14:56:15;97734.31;;;4.04;53.24
50394;BME280;36308;46.312;25.288;2023-02-13T15:01:34;97745.38;;;3.85;53.01
50394;BME280;36308;46.312;25.288;2023-02-13T15:04:10;97743.13;;;3.74;53.33
50394;BME280;36308;46.312;25.288;2023-02-13T15:06:39;97734.66;;;3.62;53.49
50394;BME280;36308;46.312;25.288;2023-02-13T15:09:21;97735.69;;;3.53;53.39
50394;BME280;36308;46.312;25.288;2023-02-13T15:11:48;97740.84;;;3.46;53.33
50394;BME280;36308;46.312;25.288;2023-02-13T15:14:22;97725.94;;;3.37;53.85
50394;BME280;36308;46.312;25.288;2023-02-13T15:16:56;97723.31;;;3.29;54.06
50394;BME280;36308;46.312;25.288;2023-02-13T15:19:23;97730.94;;;3.23;54.48
50394;BME280;36308;46.312;25.288;2023-02-13T15:21:55;97732.28;;;3.19;54.63
50394;BME280;36308;46.312;25.288;2023-02-13T15:24:22;97729.47;;;3.13;54.02
50394;BME280;36308;46.312;25.288;2023-02-13T15:27:02;97711.56;;;2.98;54.21
50394;BME280;36308;46.312;25.288;2023-02-13T15:29:30;97726.00;;;3.04;54.32
50394;BME280;36308;46.312;25.288;2023-02-13T15:31:56;97719.72;;;2.97;54.29
50394;BME280;36308;46.312;25.288;2023-02-13T15:34:28;97729.00;;;2.93;54.19
50394;BME280;36308;46.312;25.288;2023-02-13T15:36:55;97733.31;;;2.86;54.62
50394;BME280;36308;46.312;25.288;2023-02-13T15:39:26;97737.31;;;2.81;55.12
50394;BME280;36308;46.312;25.288;2023-02-13T15:41:55;97731.00;;;2.74;55.01
50394;BME280;36308;46.312;25.288;2023-02-13T15:44:27;97731.69;;;2.68;55.24
50394;BME280;36308;46.312;25.288;2023-02-13T15:46:58;97723.72;;;2.60;55.20
50394;BME280;36308;46.312;25.288;2023-02-13T15:49:27;97721.72;;;2.54;54.72
50394;BME280;36308;46.312;25.288;2023-02-13T15:52:17;97723.34;;;2.47;55.04
50394;BME280;36308;46.312;25.288;2023-02-13T15:54:51;97717.06;;;2.39;55.24
50394;BME280;36308;46.312;25.288;2023-02-13T15:57:19;97731.97;;;2.32;55.68
50394;BME280;36308;46.312;25.288;2023-02-13T15:59:45;97726.16;;;2.29;55.06
50394;BME280;36308;46.312;25.288;2023-02-13T16:02:32;97727.13;;;2.19;55.50
50394;BME280;36308;46.312;25.288;2023-02-13T16:05:04;97716.00;;;2.08;55.47
50394;BME280;36308;46.312;25.288;2023-02-13T16:07:46;97731.25;;;2.06;55.49
50394;BME280;36308;46.312;25.288;2023-02-13T16:12:52;97727.56;;;1.90;55.39
50394;BME280;36308;46.312;25.288;2023-02-13T16:15:19;97737.66;;;1.87;56.06
50394;BME280;36308;46.312;25.288;2023-02-13T16:17:46;97748.22;;;1.78;55.68
50394;BME280;36308;46.312;25.288;2023-02-13T16:22:49;97736.06;;;1.59;55.76
50394;BME280;36308;46.312;25.288;2023-02-13T16:25:23;97731.72;;;1.50;55.34
50394;BME280;36308;46.312;25.288;2023-02-13T16:28:17;97740.97;;;1.46;55.88
50394;BME280;36308;46.312;25.288;2023-02-13T16:30:45;97729.31;;;1.39;55.92
50394;BME280;36308;46.312;25.288;2023-02-13T16:40:58;97739.63;;;1.16;56.84